Pagrindinis puslapis
METAR-TAF:

METAR-TAF

Oro uostai :

Crystal River, Florida, Jungtinės Amerikos Valstijos

platuma: 28-52-02N, ilguma: 082-34-17W, Aukštis: 3 m

Dabartinis oras

Ataskaita buvo paskelbta 19 minutes, ne 18:35 UTC
Ramus vėjas
Temperatūra 25°C
Drėgmė 61%
Slėgis 1014 hPa
Matomumas: 16.1 km
Giedras dangus

METAR: KCGC 171835Z AUTO 00000KT 10SM CLR 25/17 A2993 RMK AO2

Laikas: 14:54 (18:54 UTC)


TAF: trūkstamas

Orai ataskaitas ir orų prognozės (METAR, TAF).

turimą stotys yra geltonos ir raudonos taškus žemėlapyje.

Perkelti pele per norėdami pamatyti stoties vardą.

Tada spustelėkite, norėdami matyti oro stebėjimo ir prognozės.

Norėdami pakeisti žemėlapį: spustelėkite ant žalios mygtukų su juodo kryžiaus žemyn,; žalią mygtuką su brūkšneliu, jei norite nutolinti; arba žalių rodyklių gretimoms žemėlapius.


METAR-TAF: